Portada
METAR-TAF:

METAR-TAF

Aeropuertos :

Yamena, Chad

Aeropuerto Internacional de Yamena

latitud: 12-08N, longitud: 015-02E, altitud: 295 m

Observación

El informe se hizo hace 33 minutos, a las 09:00 UTC
Viento 12 kt del noreste, variando entre norte y este-noreste
Temperatura 32°C
Humedad 9%
Presión 1010 hPa
Visibilidad 10 km o más
sin nubes por debajo de 1500 m y sin presencia de cumulonimbus.

METAR: FTTJ 200900Z 04012KT 010V070 CAVOK 32/M05 Q1010 NOSIG

Hora: 10:33 (09:33 UTC)

Pronóstico

El informe se hizo hace 4 horas y 33 minutos, a las 05:00 UTC
Pronóstico válido del 20 a las 06 UTC al 21 a las 12 UTC
Viento 6 kt del norte-noroeste
Visibilidad: 8000 m
Temporalmente
del 20 a las 06 UTC al 20 a las 12 UTC
Visibilidad: 4000 m
calima

TAF: FTTJ 200500Z 2006/2112 34006KT 8000 NSC TEMPO 2006/2012 4000 HZ

Observaciones y pronósticos meteorológicos de más de 4000 aeropuertos (mensajes METAR y TAF).

Los puntos amarillos y rojos representan las estaciones disponibles.

Ponga el ratón en el punto deseado para ver el nombre de la estación.

Haga clic para ver las observaciones y los pronósticos meteorológicos.

Para cambiar el mapa : haga clic en los botones verdes con una cruz de color negro para hacer un zoom, en el botón verde con un guión para alejar o en las flechas verdes para mapas adyacentes.


METAR-TAF: